Sun Day — WDC8625 — position and weather

sailwx.info

Track history (hours):
 
Tides and Currents Weather Stations Pressure Air Temp Water Temp Dewpoint Dewpoint Depression Visibility Wind Speed Wind Dir Waves Ship Positions

Sun Day

Owner: Y&S Marine, Inc., Belle Chasse, LA. More information available from US FCC via Universal Licensing System and Coast Guard Vessel Documentation Center.

Last reported at 2018-May-18 08:54 UTC. Time now 2018-May-21 09:14 UTC.
Position N 29°19' W 091°33'.

Length 33 m; draft 2 m.

MMSI: 367090390.

Date/timePositionNaut miles runAvg speedWind from/ knotsBaromVisibWave heightAir tempDewpointWater temp
2018-May-18 08:54N 29°19' W 091°33'22 1.4
2018-May-17 17:01N 29°25' W 091°57'016.4
2018-May-17 17:00N 29°25' W 091°57'22 1.3
2018-May-16 23:38N 29°19' W 091°32'28 2.0
2018-May-16 09:35N 29°29' W 092°02'417.7
2018-May-16 09:23N 29°33' W 092°03'513.0
2018-May-16 09:00N 29°37' W 092°00'714.3
2018-May-16 08:30N 29°43' W 092°05'6 0.2
2018-May-15 04:39N 29°47' W 092°10'1 6.7
2018-May-15 04:29N 29°47' W 092°09'43 3.1
2018-May-14 14:44N 29°18' W 091°32'415.9
2018-May-14 14:30N 29°16' W 091°29'  
2018-May-10 04:00N 29°48' W 092°09'0 0.0
2018-May-10 03:31N 29°48' W 092°09'2 4.0
2018-May-10 03:01N 29°47' W 092°11'0 0.4
2018-May-10 02:30N 29°47' W 092°11'2 4.2
2018-May-10 02:00N 29°47' W 092°08'8 1.1
2018-May-09 18:52N 29°41' W 092°04'512.8
2018-May-09 18:30N 29°44' W 092°07'4 7.1
2018-May-09 18:00N 29°48' W 092°09'0 0.0
2018-May-09 17:30N 29°48' W 092°09'0 0.0
2018-May-09 17:00N 29°48' W 092°09'0 0.0
2018-May-09 16:30N 29°48' W 092°09'0 0.2
2018-May-09 16:00N 29°48' W 092°09'2 4.3
2018-May-09 15:29N 29°47' W 092°11'0 0.0
2018-May-09 15:00N 29°47' W 092°11'2 3.4
2018-May-09 14:30N 29°47' W 092°09'3 5.4
2018-May-09 13:59N 29°45' W 092°07'2615.3
2018-May-09 12:17N 29°23' W 091°51'1714.1
2018-May-09 11:05N 29°18' W 091°32'1 3.3
2018-May-09 10:55N 29°19' W 091°33'2318.6
2018-May-09 09:41N 29°25' W 091°58'319.1
2018-May-09 09:30N 29°27' W 092°01'816.3
2018-May-09 09:00N 29°36' W 092°01'815.6
2018-May-09 08:30N 29°43' W 092°05'611.6
2018-May-09 08:00N 29°48' W 092°09'0 0.0
2018-May-09 07:30N 29°48' W 092°09'0 0.0
2018-May-09 07:00N 29°48' W 092°09'0 0.0
2018-May-09 06:30N 29°48' W 092°09'0 0.0
2018-May-09 06:00N 29°48' W 092°09'0 0.0
2018-May-09 05:30N 29°48' W 092°09'0 0.0
2018-May-09 04:59N 29°48' W 092°09'0 0.0
2018-May-09 03:05N 29°48' W 092°09'0 0.0
2018-May-09 02:59N 29°48' W 092°09'43 3.2
2018-May-08 13:33N 29°19' W 091°32'0 0.0
2018-May-08 13:11N 29°19' W 091°32'0 1.0
2018-May-08 12:59N 29°18' W 091°32'0 0.0
2018-May-08 12:30N 29°18' W 091°32'15 6.2
2018-May-08 10:06N 29°20' W 091°49'314.4
2018-May-08 09:55N 29°20' W 091°52'819.7
2018-May-08 09:30N 29°26' W 091°59'918.7
2018-May-08 09:00N 29°34' W 092°03'  
Track history (hours):
 
Tides and Currents Weather Stations Pressure Air Temp Water Temp Dewpoint Dewpoint Depression Visibility Wind Speed Wind Dir Waves Ship Positions

Sun Day

Owner: Y&S Marine, Inc., Belle Chasse, LA. More information available from US FCC via Universal Licensing System and Coast Guard Vessel Documentation Center.

Last reported at 2018-May-18 08:54 UTC. Time now 2018-May-21 09:14 UTC.
Position N 29°19' W 091°33'.

Length 33 m; draft 2 m.

MMSI: 367090390.

Date/timePositionNaut miles runAvg speedWind from/ knotsBaromVisibWave heightAir tempDewpointWater temp
2018-May-18 08:54N 29°19' W 091°33'22 1.4
2018-May-17 17:01N 29°25' W 091°57'016.4
2018-May-17 17:00N 29°25' W 091°57'22 1.3
2018-May-16 23:38N 29°19' W 091°32'28 2.0
2018-May-16 09:35N 29°29' W 092°02'417.7
2018-May-16 09:23N 29°33' W 092°03'513.0
2018-May-16 09:00N 29°37' W 092°00'714.3
2018-May-16 08:30N 29°43' W 092°05'6 0.2
2018-May-15 04:39N 29°47' W 092°10'1 6.7
2018-May-15 04:29N 29°47' W 092°09'43 3.1
2018-May-14 14:44N 29°18' W 091°32'415.9
2018-May-14 14:30N 29°16' W 091°29'  
2018-May-10 04:00N 29°48' W 092°09'0 0.0
2018-May-10 03:31N 29°48' W 092°09'2 4.0
2018-May-10 03:01N 29°47' W 092°11'0 0.4
2018-May-10 02:30N 29°47' W 092°11'2 4.2
2018-May-10 02:00N 29°47' W 092°08'8 1.1
2018-May-09 18:52N 29°41' W 092°04'512.8
2018-May-09 18:30N 29°44' W 092°07'4 7.1
2018-May-09 18:00N 29°48' W 092°09'0 0.0
2018-May-09 17:30N 29°48' W 092°09'0 0.0
2018-May-09 17:00N 29°48' W 092°09'0 0.0
2018-May-09 16:30N 29°48' W 092°09'0 0.2
2018-May-09 16:00N 29°48' W 092°09'2 4.3
2018-May-09 15:29N 29°47' W 092°11'0 0.0
2018-May-09 15:00N 29°47' W 092°11'2 3.4
2018-May-09 14:30N 29°47' W 092°09'3 5.4
2018-May-09 13:59N 29°45' W 092°07'2615.3
2018-May-09 12:17N 29°23' W 091°51'1714.1
2018-May-09 11:05N 29°18' W 091°32'1 3.3
2018-May-09 10:55N 29°19' W 091°33'2318.6
2018-May-09 09:41N 29°25' W 091°58'319.1
2018-May-09 09:30N 29°27' W 092°01'816.3
2018-May-09 09:00N 29°36' W 092°01'815.6
2018-May-09 08:30N 29°43' W 092°05'611.6
2018-May-09 08:00N 29°48' W 092°09'0 0.0
2018-May-09 07:30N 29°48' W 092°09'0 0.0
2018-May-09 07:00N 29°48' W 092°09'0 0.0
2018-May-09 06:30N 29°48' W 092°09'0 0.0
2018-May-09 06:00N 29°48' W 092°09'0 0.0
2018-May-09 05:30N 29°48' W 092°09'0 0.0
2018-May-09 04:59N 29°48' W 092°09'0 0.0
2018-May-09 03:05N 29°48' W 092°09'0 0.0
2018-May-09 02:59N 29°48' W 092°09'43 3.2
2018-May-08 13:33N 29°19' W 091°32'0 0.0
2018-May-08 13:11N 29°19' W 091°32'0 1.0
2018-May-08 12:59N 29°18' W 091°32'0 0.0
2018-May-08 12:30N 29°18' W 091°32'15 6.2
2018-May-08 10:06N 29°20' W 091°49'314.4
2018-May-08 09:55N 29°20' W 091°52'819.7
2018-May-08 09:30N 29°26' W 091°59'918.7
2018-May-08 09:00N 29°34' W 092°03'  

Dump ship's entire track history